sensor_id;sensor_type;location;lat;lon;timestamp;P1;durP1;ratioP1;P2;durP2;ratioP2
22525;SDS011;11429;50.842;4.386;2023-05-29T00:00:56;17.70;;;7.90;;
22525;SDS011;11429;50.842;4.386;2023-05-29T00:03:22;17.23;;;8.07;;
22525;SDS011;11429;50.842;4.386;2023-05-29T00:05:47;13.52;;;7.90;;
22525;SDS011;11429;50.842;4.386;2023-05-29T00:08:14;17.25;;;8.07;;
22525;SDS011;11429;50.842;4.386;2023-05-29T00:10:40;17.52;;;7.85;;
22525;SDS011;11429;50.842;4.386;2023-05-29T00:13:06;16.15;;;8.45;;
22525;SDS011;11429;50.842;4.386;2023-05-29T00:15:32;21.05;;;8.45;;
22525;SDS011;11429;50.842;4.386;2023-05-29T00:17:58;16.63;;;8.38;;
22525;SDS011;11429;50.842;4.386;2023-05-29T00:20:23;16.52;;;8.18;;
22525;SDS011;11429;50.842;4.386;2023-05-29T00:22:49;15.18;;;8.18;;
22525;SDS011;11429;50.842;4.386;2023-05-29T00:25:14;16.30;;;9.23;;
22525;SDS011;11429;50.842;4.386;2023-05-29T00:27:41;12.05;;;7.68;;
22525;SDS011;11429;50.842;4.386;2023-05-29T00:30:06;15.18;;;8.82;;
22525;SDS011;11429;50.842;4.386;2023-05-29T00:32:33;19.65;;;8.25;;
22525;SDS011;11429;50.842;4.386;2023-05-29T00:34:58;18.05;;;8.45;;
22525;SDS011;11429;50.842;4.386;2023-05-29T00:37:24;14.90;;;7.68;;
22525;SDS011;11429;50.842;4.386;2023-05-29T00:39:50;16.50;;;8.50;;
22525;SDS011;11429;50.842;4.386;2023-05-29T00:42:16;15.65;;;8.90;;
22525;SDS011;11429;50.842;4.386;2023-05-29T00:44:42;16.02;;;9.00;;
22525;SDS011;11429;50.842;4.386;2023-05-29T00:47:08;18.85;;;9.32;;
22525;SDS011;11429;50.842;4.386;2023-05-29T00:49:34;17.60;;;9.15;;
22525;SDS011;11429;50.842;4.386;2023-05-29T00:52:01;14.50;;;8.40;;
22525;SDS011;11429;50.842;4.386;2023-05-29T00:54:31;18.70;;;8.88;;
22525;SDS011;11429;50.842;4.386;2023-05-29T00:56:58;13.48;;;8.95;;
22525;SDS011;11429;50.842;4.386;2023-05-29T00:59:29;15.07;;;9.05;;
22525;SDS011;11429;50.842;4.386;2023-05-29T01:01:55;15.93;;;9.25;;
22525;SDS011;11429;50.842;4.386;2023-05-29T01:04:23;16.10;;;8.55;;
22525;SDS011;11429;50.842;4.386;2023-05-29T01:06:50;18.70;;;9.48;;
22525;SDS011;11429;50.842;4.386;2023-05-29T01:09:16;16.25;;;8.90;;
22525;SDS011;11429;50.842;4.386;2023-05-29T01:25:24;17.10;;;9.25;;
22525;SDS011;11429;50.842;4.386;2023-05-29T01:28:00;11.90;;;8.32;;
22525;SDS011;11429;50.842;4.386;2023-05-29T01:30:29;11.07;;;8.00;;
22525;SDS011;11429;50.842;4.386;2023-05-29T01:32:58;15.77;;;8.15;;
22525;SDS011;11429;50.842;4.386;2023-05-29T01:35:24;15.32;;;8.57;;
22525;SDS011;11429;50.842;4.386;2023-05-29T01:37:50;15.48;;;8.35;;
22525;SDS011;11429;50.842;4.386;2023-05-29T01:40:16;14.75;;;8.35;;
22525;SDS011;11429;50.842;4.386;2023-05-29T01:42:42;19.95;;;9.32;;
22525;SDS011;11429;50.842;4.386;2023-05-29T01:45:08;18.25;;;9.30;;
22525;SDS011;11429;50.842;4.386;2023-05-29T01:47:36;22.45;;;9.45;;
22525;SDS011;11429;50.842;4.386;2023-05-29T01:50:03;17.90;;;9.18;;
22525;SDS011;11429;50.842;4.386;2023-05-29T01:52:29;17.70;;;9.63;;
22525;SDS011;11429;50.842;4.386;2023-05-29T01:54:55;16.73;;;9.05;;
22525;SDS011;11429;50.842;4.386;2023-05-29T01:57:21;15.00;;;8.88;;
22525;SDS011;11429;50.842;4.386;2023-05-29T01:59:47;17.27;;;9.15;;
22525;SDS011;11429;50.842;4.386;2023-05-29T02:02:14;17.70;;;8.68;;
22525;SDS011;11429;50.842;4.386;2023-05-29T02:04:39;15.77;;;9.52;;
22525;SDS011;11429;50.842;4.386;2023-05-29T02:07:05;16.70;;;8.38;;
22525;SDS011;11429;50.842;4.386;2023-05-29T02:09:31;21.45;;;9.40;;
22525;SDS011;11429;50.842;4.386;2023-05-29T02:11:57;15.70;;;8.88;;
22525;SDS011;11429;50.842;4.386;2023-05-29T02:14:23;18.38;;;8.57;;
22525;SDS011;11429;50.842;4.386;2023-05-29T02:16:52;19.33;;;8.70;;
22525;SDS011;11429;50.842;4.386;2023-05-29T02:19:18;16.50;;;8.85;;
22525;SDS011;11429;50.842;4.386;2023-05-29T02:21:44;14.82;;;8.20;;
22525;SDS011;11429;50.842;4.386;2023-05-29T02:24:11;16.60;;;8.73;;
22525;SDS011;11429;50.842;4.386;2023-05-29T02:26:37;15.55;;;9.18;;
22525;SDS011;11429;50.842;4.386;2023-05-29T02:29:03;14.65;;;8.02;;
22525;SDS011;11429;50.842;4.386;2023-05-29T02:31:30;16.70;;;8.10;;
22525;SDS011;11429;50.842;4.386;2023-05-29T02:33:56;15.15;;;7.55;;
22525;SDS011;11429;50.842;4.386;2023-05-29T02:36:22;14.90;;;7.68;;
22525;SDS011;11429;50.842;4.386;2023-05-29T02:38:47;17.08;;;7.55;;
22525;SDS011;11429;50.842;4.386;2023-05-29T02:41:13;21.13;;;7.15;;
22525;SDS011;11429;50.842;4.386;2023-05-29T02:43:39;13.65;;;6.72;;
22525;SDS011;11429;50.842;4.386;2023-05-29T02:46:04;12.20;;;6.05;;
22525;SDS011;11429;50.842;4.386;2023-05-29T02:48:30;17.27;;;6.43;;
22525;SDS011;11429;50.842;4.386;2023-05-29T02:50:56;17.85;;;6.90;;
22525;SDS011;11429;50.842;4.386;2023-05-29T02:53:21;17.23;;;7.20;;
22525;SDS011;11429;50.842;4.386;2023-05-29T02:55:48;16.25;;;6.50;;
22525;SDS011;11429;50.842;4.386;2023-05-29T02:58:16;16.30;;;6.15;;
22525;SDS011;11429;50.842;4.386;2023-05-29T03:00:41;17.27;;;6.82;;
22525;SDS011;11429;50.842;4.386;2023-05-29T03:03:07;17.17;;;6.03;;
22525;SDS011;11429;50.842;4.386;2023-05-29T03:05:33;15.68;;;4.97;;
22525;SDS011;11429;50.842;4.386;2023-05-29T03:07:59;11.88;;;5.43;;
22525;SDS011;11429;50.842;4.386;2023-05-29T03:10:25;12.45;;;6.28;;
22525;SDS011;11429;50.842;4.386;2023-05-29T03:12:51;12.52;;;5.57;;
22525;SDS011;11429;50.842;4.386;2023-05-29T03:15:16;16.88;;;5.78;;
22525;SDS011;11429;50.842;4.386;2023-05-29T03:17:45;15.27;;;5.63;;
22525;SDS011;11429;50.842;4.386;2023-05-29T03:20:11;17.20;;;5.78;;
22525;SDS011;11429;50.842;4.386;2023-05-29T03:22:38;13.73;;;5.38;;
22525;SDS011;11429;50.842;4.386;2023-05-29T03:25:04;17.73;;;5.60;;
22525;SDS011;11429;50.842;4.386;2023-05-29T03:27:30;15.02;;;5.32;;
22525;SDS011;11429;50.842;4.386;2023-05-29T03:29:56;15.30;;;4.60;;
22525;SDS011;11429;50.842;4.386;2023-05-29T03:32:23;19.02;;;5.43;;
22525;SDS011;11429;50.842;4.386;2023-05-29T03:34:49;17.60;;;4.70;;
22525;SDS011;11429;50.842;4.386;2023-05-29T03:37:15;16.52;;;4.50;;
22525;SDS011;11429;50.842;4.386;2023-05-29T03:39:41;14.13;;;4.55;;
22525;SDS011;11429;50.842;4.386;2023-05-29T03:42:06;16.70;;;4.50;;
22525;SDS011;11429;50.842;4.386;2023-05-29T03:44:32;16.08;;;4.50;;
22525;SDS011;11429;50.842;4.386;2023-05-29T03:46:57;11.88;;;4.00;;
22525;SDS011;11429;50.842;4.386;2023-05-29T03:49:23;12.77;;;3.97;;
22525;SDS011;11429;50.842;4.386;2023-05-29T03:51:49;19.63;;;4.80;;
22525;SDS011;11429;50.842;4.386;2023-05-29T03:54:15;14.98;;;4.07;;
22525;SDS011;11429;50.842;4.386;2023-05-29T03:56:41;10.95;;;3.63;;
22525;SDS011;11429;50.842;4.386;2023-05-29T03:59:07;11.85;;;3.70;;
22525;SDS011;11429;50.842;4.386;2023-05-29T04:01:33;10.13;;;3.28;;
22525;SDS011;11429;50.842;4.386;2023-05-29T04:03:58;13.07;;;3.60;;
22525;SDS011;11429;50.842;4.386;2023-05-29T04:06:24;12.18;;;3.63;;
22525;SDS011;11429;50.842;4.386;2023-05-29T04:08:50;18.08;;;3.92;;
22525;SDS011;11429;50.842;4.386;2023-05-29T04:11:16;15.48;;;4.30;;
22525;SDS011;11429;50.842;4.386;2023-05-29T04:13:42;14.18;;;3.35;;
22525;SDS011;11429;50.842;4.386;2023-05-29T04:16:08;16.92;;;3.78;;
22525;SDS011;11429;50.842;4.386;2023-05-29T04:18:33;8.77;;;2.97;;
22525;SDS011;11429;50.842;4.386;2023-05-29T04:20:59;19.35;;;3.58;;
22525;SDS011;11429;50.842;4.386;2023-05-29T04:23:25;15.95;;;3.40;;
22525;SDS011;11429;50.842;4.386;2023-05-29T04:25:51;15.52;;;3.40;;
22525;SDS011;11429;50.842;4.386;2023-05-29T04:28:17;13.00;;;3.03;;
22525;SDS011;11429;50.842;4.386;2023-05-29T04:30:46;14.18;;;3.42;;
22525;SDS011;11429;50.842;4.386;2023-05-29T04:33:12;11.43;;;3.35;;
22525;SDS011;11429;50.842;4.386;2023-05-29T04:35:40;13.80;;;3.95;;
22525;SDS011;11429;50.842;4.386;2023-05-29T04:38:08;10.75;;;3.08;;
22525;SDS011;11429;50.842;4.386;2023-05-29T04:40:37;14.30;;;3.97;;
22525;SDS011;11429;50.842;4.386;2023-05-29T04:43:05;13.15;;;3.00;;
22525;SDS011;11429;50.842;4.386;2023-05-29T04:45:31;14.77;;;3.42;;
22525;SDS011;11429;50.842;4.386;2023-05-29T04:47:56;13.65;;;3.50;;
22525;SDS011;11429;50.842;4.386;2023-05-29T04:50:22;17.77;;;4.20;;
22525;SDS011;11429;50.842;4.386;2023-05-29T04:52:48;14.25;;;3.40;;
22525;SDS011;11429;50.842;4.386;2023-05-29T04:55:14;9.85;;;2.78;;
22525;SDS011;11429;50.842;4.386;2023-05-29T04:57:41;11.63;;;3.10;;
22525;SDS011;11429;50.842;4.386;2023-05-29T05:00:07;13.40;;;2.90;;
22525;SDS011;11429;50.842;4.386;2023-05-29T05:02:39;15.52;;;3.38;;
22525;SDS011;11429;50.842;4.386;2023-05-29T05:05:06;12.68;;;3.75;;
22525;SDS011;11429;50.842;4.386;2023-05-29T05:07:33;15.13;;;3.65;;
22525;SDS011;11429;50.842;4.386;2023-05-29T05:09:59;12.68;;;3.30;;
22525;SDS011;11429;50.842;4.386;2023-05-29T05:12:24;10.85;;;3.08;;
22525;SDS011;11429;50.842;4.386;2023-05-29T05:14:50;14.32;;;3.45;;
22525;SDS011;11429;50.842;4.386;2023-05-29T05:17:16;12.15;;;3.72;;
22525;SDS011;11429;50.842;4.386;2023-05-29T05:19:41;19.88;;;3.80;;
22525;SDS011;11429;50.842;4.386;2023-05-29T05:22:07;16.67;;;3.13;;
22525;SDS011;11429;50.842;4.386;2023-05-29T05:24:33;13.55;;;3.28;;
22525;SDS011;11429;50.842;4.386;2023-05-29T05:27:00;13.82;;;3.10;;
22525;SDS011;11429;50.842;4.386;2023-05-29T05:29:25;16.38;;;3.63;;
22525;SDS011;11429;50.842;4.386;2023-05-29T05:31:51;14.05;;;3.42;;
22525;SDS011;11429;50.842;4.386;2023-05-29T05:34:17;9.48;;;3.03;;
22525;SDS011;11429;50.842;4.386;2023-05-29T05:36:42;11.23;;;3.10;;
22525;SDS011;11429;50.842;4.386;2023-05-29T05:39:08;10.73;;;3.08;;
22525;SDS011;11429;50.842;4.386;2023-05-29T05:41:34;12.38;;;3.25;;
22525;SDS011;11429;50.842;4.386;2023-05-29T05:43:59;26.95;;;4.00;;
22525;SDS011;11429;50.842;4.386;2023-05-29T05:46:25;15.57;;;3.85;;
22525;SDS011;11429;50.842;4.386;2023-05-29T05:48:51;13.60;;;3.30;;
22525;SDS011;11429;50.842;4.386;2023-05-29T05:51:16;14.45;;;3.05;;
22525;SDS011;11429;50.842;4.386;2023-05-29T05:53:43;11.27;;;3.40;;
22525;SDS011;11429;50.842;4.386;2023-05-29T05:56:08;11.40;;;3.20;;
22525;SDS011;11429;50.842;4.386;2023-05-29T05:58:34;11.73;;;2.97;;
22525;SDS011;11429;50.842;4.386;2023-05-29T06:01:00;10.55;;;3.10;;
22525;SDS011;11429;50.842;4.386;2023-05-29T06:03:26;13.48;;;3.45;;
22525;SDS011;11429;50.842;4.386;2023-05-29T06:05:52;13.13;;;3.25;;
22525;SDS011;11429;50.842;4.386;2023-05-29T06:08:19;14.80;;;3.45;;
22525;SDS011;11429;50.842;4.386;2023-05-29T06:10:45;11.88;;;3.45;;
22525;SDS011;11429;50.842;4.386;2023-05-29T06:13:11;14.77;;;3.22;;
22525;SDS011;11429;50.842;4.386;2023-05-29T06:15:37;12.98;;;3.28;;
22525;SDS011;11429;50.842;4.386;2023-05-29T06:18:04;14.30;;;3.80;;
22525;SDS011;11429;50.842;4.386;2023-05-29T06:20:30;16.55;;;4.00;;
22525;SDS011;11429;50.842;4.386;2023-05-29T06:22:55;12.82;;;3.28;;
22525;SDS011;11429;50.842;4.386;2023-05-29T06:25:21;16.48;;;3.13;;
22525;SDS011;11429;50.842;4.386;2023-05-29T06:27:55;11.85;;;3.60;;
22525;SDS011;11429;50.842;4.386;2023-05-29T06:30:21;13.68;;;3.17;;
22525;SDS011;11429;50.842;4.386;2023-05-29T06:32:46;11.75;;;3.22;;
22525;SDS011;11429;50.842;4.386;2023-05-29T06:35:12;12.25;;;3.40;;
22525;SDS011;11429;50.842;4.386;2023-05-29T06:37:38;12.32;;;3.30;;
22525;SDS011;11429;50.842;4.386;2023-05-29T06:40:03;15.10;;;3.92;;
22525;SDS011;11429;50.842;4.386;2023-05-29T06:42:30;11.80;;;3.15;;
22525;SDS011;11429;50.842;4.386;2023-05-29T06:44:55;10.30;;;3.22;;
22525;SDS011;11429;50.842;4.386;2023-05-29T06:47:21;12.65;;;3.90;;
22525;SDS011;11429;50.842;4.386;2023-05-29T06:49:46;14.07;;;3.10;;
22525;SDS011;11429;50.842;4.386;2023-05-29T06:52:12;10.90;;;3.25;;
22525;SDS011;11429;50.842;4.386;2023-05-29T06:54:38;15.07;;;3.50;;
22525;SDS011;11429;50.842;4.386;2023-05-29T06:57:04;10.35;;;3.22;;
22525;SDS011;11429;50.842;4.386;2023-05-29T06:59:30;12.27;;;3.83;;
22525;SDS011;11429;50.842;4.386;2023-05-29T07:01:55;12.73;;;3.67;;
22525;SDS011;11429;50.842;4.386;2023-05-29T07:04:21;14.02;;;3.10;;
22525;SDS011;11429;50.842;4.386;2023-05-29T07:06:47;14.07;;;3.78;;
22525;SDS011;11429;50.842;4.386;2023-05-29T07:09:12;10.80;;;3.47;;
22525;SDS011;11429;50.842;4.386;2023-05-29T07:11:38;14.88;;;3.75;;
22525;SDS011;11429;50.842;4.386;2023-05-29T07:14:04;11.98;;;3.70;;
22525;SDS011;11429;50.842;4.386;2023-05-29T07:16:30;12.20;;;3.15;;
22525;SDS011;11429;50.842;4.386;2023-05-29T07:18:55;16.75;;;3.72;;
22525;SDS011;11429;50.842;4.386;2023-05-29T07:21:21;13.65;;;2.83;;
22525;SDS011;11429;50.842;4.386;2023-05-29T07:23:47;11.90;;;3.45;;
22525;SDS011;11429;50.842;4.386;2023-05-29T07:26:13;14.32;;;3.53;;
22525;SDS011;11429;50.842;4.386;2023-05-29T07:28:38;11.20;;;3.08;;
22525;SDS011;11429;50.842;4.386;2023-05-29T07:31:04;14.18;;;3.88;;
22525;SDS011;11429;50.842;4.386;2023-05-29T07:33:30;10.35;;;3.42;;
22525;SDS011;11429;50.842;4.386;2023-05-29T07:35:56;11.80;;;3.80;;
22525;SDS011;11429;50.842;4.386;2023-05-29T07:38:25;13.45;;;3.70;;
22525;SDS011;11429;50.842;4.386;2023-05-29T07:40:50;14.38;;;3.47;;
22525;SDS011;11429;50.842;4.386;2023-05-29T07:43:16;16.17;;;3.65;;
22525;SDS011;11429;50.842;4.386;2023-05-29T07:45:42;11.25;;;3.35;;
22525;SDS011;11429;50.842;4.386;2023-05-29T07:48:07;11.85;;;2.95;;
22525;SDS011;11429;50.842;4.386;2023-05-29T07:50:33;13.45;;;3.25;;
22525;SDS011;11429;50.842;4.386;2023-05-29T07:52:59;12.05;;;3.60;;
22525;SDS011;11429;50.842;4.386;2023-05-29T07:55:25;9.43;;;3.15;;
22525;SDS011;11429;50.842;4.386;2023-05-29T07:57:51;12.80;;;3.50;;
22525;SDS011;11429;50.842;4.386;2023-05-29T08:00:17;13.35;;;3.28;;
22525;SDS011;11429;50.842;4.386;2023-05-29T08:02:42;12.35;;;3.30;;
22525;SDS011;11429;50.842;4.386;2023-05-29T08:05:08;11.50;;;3.50;;
22525;SDS011;11429;50.842;4.386;2023-05-29T08:07:34;13.00;;;2.83;;
22525;SDS011;11429;50.842;4.386;2023-05-29T08:10:01;11.38;;;3.28;;
22525;SDS011;11429;50.842;4.386;2023-05-29T08:12:27;11.27;;;3.13;;
22525;SDS011;11429;50.842;4.386;2023-05-29T08:14:53;12.10;;;2.90;;
22525;SDS011;11429;50.842;4.386;2023-05-29T08:17:18;9.57;;;3.08;;
22525;SDS011;11429;50.842;4.386;2023-05-29T08:19:44;11.23;;;3.55;;
22525;SDS011;11429;50.842;4.386;2023-05-29T08:22:12;11.57;;;3.22;;
22525;SDS011;11429;50.842;4.386;2023-05-29T08:24:40;12.43;;;3.10;;
22525;SDS011;11429;50.842;4.386;2023-05-29T08:27:05;11.20;;;3.50;;
22525;SDS011;11429;50.842;4.386;2023-05-29T08:29:31;10.52;;;3.33;;
22525;SDS011;11429;50.842;4.386;2023-05-29T08:31:57;12.10;;;3.67;;
22525;SDS011;11429;50.842;4.386;2023-05-29T08:34:22;13.90;;;3.28;;
22525;SDS011;11429;50.842;4.386;2023-05-29T08:36:49;10.52;;;2.90;;
22525;SDS011;11429;50.842;4.386;2023-05-29T08:39:16;9.35;;;3.42;;
22525;SDS011;11429;50.842;4.386;2023-05-29T08:44:30;14.82;;;3.25;;
22525;SDS011;11429;50.842;4.386;2023-05-29T08:47:02;14.55;;;3.65;;
22525;SDS011;11429;50.842;4.386;2023-05-29T08:49:38;11.43;;;3.75;;
22525;SDS011;11429;50.842;4.386;2023-05-29T08:52:09;10.52;;;2.50;;
22525;SDS011;11429;50.842;4.386;2023-05-29T08:54:40;17.30;;;3.35;;
22525;SDS011;11429;50.842;4.386;2023-05-29T09:30:45;15.13;;;4.13;;
22525;SDS011;11429;50.842;4.386;2023-05-29T09:33:14;17.65;;;3.60;;
22525;SDS011;11429;50.842;4.386;2023-05-29T09:35:47;14.88;;;3.42;;
22525;SDS011;11429;50.842;4.386;2023-05-29T09:38:15;14.18;;;3.60;;
22525;SDS011;11429;50.842;4.386;2023-05-29T09:40:43;17.67;;;3.78;;
22525;SDS011;11429;50.842;4.386;2023-05-29T09:45:40;12.75;;;3.25;;
22525;SDS011;11429;50.842;4.386;2023-05-29T09:48:07;13.48;;;3.35;;
22525;SDS011;11429;50.842;4.386;2023-05-29T09:50:36;12.85;;;3.28;;
22525;SDS011;11429;50.842;4.386;2023-05-29T09:53:02;38.35;;;4.35;;
22525;SDS011;11429;50.842;4.386;2023-05-29T09:55:28;22.50;;;4.00;;
22525;SDS011;11429;50.842;4.386;2023-05-29T09:57:57;14.18;;;3.53;;
22525;SDS011;11429;50.842;4.386;2023-05-29T10:00:24;11.50;;;3.30;;
22525;SDS011;11429;50.842;4.386;2023-05-29T10:02:52;20.30;;;3.92;;
22525;SDS011;11429;50.842;4.386;2023-05-29T10:05:17;16.63;;;3.42;;
22525;SDS011;11429;50.842;4.386;2023-05-29T10:07:45;15.68;;;3.47;;
22525;SDS011;11429;50.842;4.386;2023-05-29T10:10:14;14.82;;;3.65;;
22525;SDS011;11429;50.842;4.386;2023-05-29T10:12:48;10.75;;;3.30;;
22525;SDS011;11429;50.842;4.386;2023-05-29T10:15:15;11.93;;;3.03;;
22525;SDS011;11429;50.842;4.386;2023-05-29T10:17:50;9.05;;;2.85;;
22525;SDS011;11429;50.842;4.386;2023-05-29T10:20:22;12.85;;;3.38;;
22525;SDS011;11429;50.842;4.386;2023-05-29T10:22:49;12.43;;;3.15;;
22525;SDS011;11429;50.842;4.386;2023-05-29T10:25:20;9.20;;;3.25;;
22525;SDS011;11429;50.842;4.386;2023-05-29T10:27:48;16.17;;;3.67;;
22525;SDS011;11429;50.842;4.386;2023-05-29T10:30:17;13.30;;;3.10;;
22525;SDS011;11429;50.842;4.386;2023-05-29T10:33:14;16.13;;;3.53;;
22525;SDS011;11429;50.842;4.386;2023-05-29T10:36:07;16.77;;;3.28;;
22525;SDS011;11429;50.842;4.386;2023-05-29T10:38:44;18.85;;;3.97;;
22525;SDS011;11429;50.842;4.386;2023-05-29T10:43:55;10.25;;;3.00;;
22525;SDS011;11429;50.842;4.386;2023-05-29T10:49:16;13.18;;;3.38;;
22525;SDS011;11429;50.842;4.386;2023-05-29T10:51:43;12.82;;;3.47;;
22525;SDS011;11429;50.842;4.386;2023-05-29T10:54:09;26.67;;;3.53;;
22525;SDS011;11429;50.842;4.386;2023-05-29T10:56:35;15.52;;;3.35;;
22525;SDS011;11429;50.842;4.386;2023-05-29T10:59:01;25.75;;;4.22;;
22525;SDS011;11429;50.842;4.386;2023-05-29T11:01:31;14.80;;;2.97;;
22525;SDS011;11429;50.842;4.386;2023-05-29T11:06:47;12.60;;;3.00;;
22525;SDS011;11429;50.842;4.386;2023-05-29T11:12:10;16.33;;;3.22;;
22525;SDS011;11429;50.842;4.386;2023-05-29T11:15:05;11.88;;;3.00;;
22525;SDS011;11429;50.842;4.386;2023-05-29T11:20:04;14.98;;;3.13;;
22525;SDS011;11429;50.842;4.386;2023-05-29T11:28:01;11.00;;;3.40;;
22525;SDS011;11429;50.842;4.386;2023-05-29T11:30:29;18.55;;;3.47;;
22525;SDS011;11429;50.842;4.386;2023-05-29T11:32:55;15.02;;;3.38;;
22525;SDS011;11429;50.842;4.386;2023-05-29T11:35:26;25.70;;;3.53;;
22525;SDS011;11429;50.842;4.386;2023-05-29T11:37:56;14.68;;;2.88;;
22525;SDS011;11429;50.842;4.386;2023-05-29T11:40:22;14.05;;;3.25;;
22525;SDS011;11429;50.842;4.386;2023-05-29T11:42:48;15.30;;;3.33;;
22525;SDS011;11429;50.842;4.386;2023-05-29T11:45:16;13.05;;;3.25;;
22525;SDS011;11429;50.842;4.386;2023-05-29T11:48:04;13.52;;;3.38;;
22525;SDS011;11429;50.842;4.386;2023-05-29T11:50:31;16.73;;;2.97;;
22525;SDS011;11429;50.842;4.386;2023-05-29T11:52:58;13.43;;;3.35;;
22525;SDS011;11429;50.842;4.386;2023-05-29T11:55:25;16.38;;;3.45;;
22525;SDS011;11429;50.842;4.386;2023-05-29T11:58:02;11.95;;;3.05;;
22525;SDS011;11429;50.842;4.386;2023-05-29T12:00:32;13.32;;;2.90;;
22525;SDS011;11429;50.842;4.386;2023-05-29T12:03:00;15.00;;;3.15;;
22525;SDS011;11429;50.842;4.386;2023-05-29T12:05:28;11.70;;;2.70;;
22525;SDS011;11429;50.842;4.386;2023-05-29T12:07:55;12.23;;;3.42;;
22525;SDS011;11429;50.842;4.386;2023-05-29T12:10:22;12.18;;;3.00;;
22525;SDS011;11429;50.842;4.386;2023-05-29T12:12:56;9.52;;;3.25;;
22525;SDS011;11429;50.842;4.386;2023-05-29T12:15:23;15.25;;;3.42;;
22525;SDS011;11429;50.842;4.386;2023-05-29T12:17:50;14.10;;;2.88;;
22525;SDS011;11429;50.842;4.386;2023-05-29T12:20:17;16.73;;;3.20;;
22525;SDS011;11429;50.842;4.386;2023-05-29T12:22:44;8.77;;;3.13;;
22525;SDS011;11429;50.842;4.386;2023-05-29T12:25:11;10.68;;;2.80;;
22525;SDS011;11429;50.842;4.386;2023-05-29T12:27:47;13.50;;;3.40;;
22525;SDS011;11429;50.842;4.386;2023-05-29T12:30:14;8.27;;;2.70;;
22525;SDS011;11429;50.842;4.386;2023-05-29T12:32:43;9.85;;;2.95;;
22525;SDS011;11429;50.842;4.386;2023-05-29T12:35:17;13.40;;;3.15;;
22525;SDS011;11429;50.842;4.386;2023-05-29T12:37:47;10.63;;;2.97;;
22525;SDS011;11429;50.842;4.386;2023-05-29T12:40:21;17.58;;;3.17;;
22525;SDS011;11429;50.842;4.386;2023-05-29T12:42:48;12.45;;;2.90;;
22525;SDS011;11429;50.842;4.386;2023-05-29T12:45:19;11.68;;;3.05;;
22525;SDS011;11429;50.842;4.386;2023-05-29T12:47:48;9.57;;;2.60;;
22525;SDS011;11429;50.842;4.386;2023-05-29T12:52:55;9.63;;;3.13;;
22525;SDS011;11429;50.842;4.386;2023-05-29T12:55:22;9.70;;;3.00;;
22525;SDS011;11429;50.842;4.386;2023-05-29T12:57:48;13.45;;;2.97;;
22525;SDS011;11429;50.842;4.386;2023-05-29T13:00:14;12.32;;;2.63;;
22525;SDS011;11429;50.842;4.386;2023-05-29T13:02:40;8.27;;;2.75;;
22525;SDS011;11429;50.842;4.386;2023-05-29T13:05:06;11.80;;;2.90;;
22525;SDS011;11429;50.842;4.386;2023-05-29T13:07:32;10.35;;;2.47;;
22525;SDS011;11429;50.842;4.386;2023-05-29T13:09:59;10.98;;;3.15;;
22525;SDS011;11429;50.842;4.386;2023-05-29T13:12:26;11.98;;;3.05;;
22525;SDS011;11429;50.842;4.386;2023-05-29T13:14:52;11.65;;;3.08;;
22525;SDS011;11429;50.842;4.386;2023-05-29T13:17:20;15.35;;;3.45;;
22525;SDS011;11429;50.842;4.386;2023-05-29T13:19:46;14.75;;;3.38;;
22525;SDS011;11429;50.842;4.386;2023-05-29T13:22:12;8.52;;;2.70;;
22525;SDS011;11429;50.842;4.386;2023-05-29T13:24:38;14.20;;;3.28;;
22525;SDS011;11429;50.842;4.386;2023-05-29T13:27:04;9.18;;;3.30;;
22525;SDS011;11429;50.842;4.386;2023-05-29T13:29:30;18.73;;;3.55;;
22525;SDS011;11429;50.842;4.386;2023-05-29T13:31:56;13.60;;;3.42;;
22525;SDS011;11429;50.842;4.386;2023-05-29T13:34:22;10.75;;;2.95;;
22525;SDS011;11429;50.842;4.386;2023-05-29T13:36:53;12.60;;;3.15;;
22525;SDS011;11429;50.842;4.386;2023-05-29T13:39:21;10.80;;;3.25;;
22525;SDS011;11429;50.842;4.386;2023-05-29T13:41:47;9.57;;;3.08;;
22525;SDS011;11429;50.842;4.386;2023-05-29T13:44:13;12.13;;;3.25;;
22525;SDS011;11429;50.842;4.386;2023-05-29T13:46:39;12.48;;;3.22;;
22525;SDS011;11429;50.842;4.386;2023-05-29T13:49:05;10.63;;;3.10;;
22525;SDS011;11429;50.842;4.386;2023-05-29T13:51:32;13.00;;;3.05;;
22525;SDS011;11429;50.842;4.386;2023-05-29T13:53:58;15.88;;;2.80;;
22525;SDS011;11429;50.842;4.386;2023-05-29T13:56:24;19.25;;;3.45;;
22525;SDS011;11429;50.842;4.386;2023-05-29T13:58:52;17.33;;;3.67;;
22525;SDS011;11429;50.842;4.386;2023-05-29T14:01:17;19.77;;;3.53;;
22525;SDS011;11429;50.842;4.386;2023-05-29T14:03:47;12.55;;;3.28;;
22525;SDS011;11429;50.842;4.386;2023-05-29T14:06:13;18.25;;;3.13;;
22525;SDS011;11429;50.842;4.386;2023-05-29T14:08:39;12.88;;;2.80;;
22525;SDS011;11429;50.842;4.386;2023-05-29T14:11:05;17.75;;;3.95;;
22525;SDS011;11429;50.842;4.386;2023-05-29T14:13:30;12.20;;;3.38;;
22525;SDS011;11429;50.842;4.386;2023-05-29T14:15:56;15.35;;;3.20;;
22525;SDS011;11429;50.842;4.386;2023-05-29T14:39:03;19.13;;;3.40;;
22525;SDS011;11429;50.842;4.386;2023-05-29T14:41:30;14.88;;;3.50;;
22525;SDS011;11429;50.842;4.386;2023-05-29T14:43:59;10.18;;;3.33;;
22525;SDS011;11429;50.842;4.386;2023-05-29T14:46:26;7.93;;;3.08;;
22525;SDS011;11429;50.842;4.386;2023-05-29T14:48:56;9.20;;;3.33;;
22525;SDS011;11429;50.842;4.386;2023-05-29T14:51:22;8.32;;;3.03;;
22525;SDS011;11429;50.842;4.386;2023-05-29T14:54:26;11.93;;;3.40;;
22525;SDS011;11429;50.842;4.386;2023-05-29T14:57:12;17.50;;;3.35;;
22525;SDS011;11429;50.842;4.386;2023-05-29T15:02:39;11.15;;;3.33;;
22525;SDS011;11429;50.842;4.386;2023-05-29T15:05:08;16.38;;;3.75;;
22525;SDS011;11429;50.842;4.386;2023-05-29T15:07:34;16.45;;;3.30;;
22525;SDS011;11429;50.842;4.386;2023-05-29T15:10:00;13.63;;;3.25;;
22525;SDS011;11429;50.842;4.386;2023-05-29T15:12:26;10.10;;;2.47;;
22525;SDS011;11429;50.842;4.386;2023-05-29T15:14:52;12.20;;;3.20;;
22525;SDS011;11429;50.842;4.386;2023-05-29T15:17:18;10.38;;;2.78;;
22525;SDS011;11429;50.842;4.386;2023-05-29T15:19:44;10.65;;;2.83;;
22525;SDS011;11429;50.842;4.386;2023-05-29T15:22:10;12.10;;;3.13;;
22525;SDS011;11429;50.842;4.386;2023-05-29T15:24:35;15.63;;;3.80;;
22525;SDS011;11429;50.842;4.386;2023-05-29T15:27:02;12.82;;;3.00;;
22525;SDS011;11429;50.842;4.386;2023-05-29T15:29:34;30.52;;;3.85;;
22525;SDS011;11429;50.842;4.386;2023-05-29T15:32:01;12.98;;;2.50;;
22525;SDS011;11429;50.842;4.386;2023-05-29T15:34:28;15.73;;;3.70;;
22525;SDS011;11429;50.842;4.386;2023-05-29T15:36:59;16.30;;;3.78;;
22525;SDS011;11429;50.842;4.386;2023-05-29T15:39:25;13.68;;;3.25;;
22525;SDS011;11429;50.842;4.386;2023-05-29T15:41:51;32.17;;;4.07;;
22525;SDS011;11429;50.842;4.386;2023-05-29T15:44:17;13.52;;;2.90;;
22525;SDS011;11429;50.842;4.386;2023-05-29T15:46:43;18.25;;;3.92;;
22525;SDS011;11429;50.842;4.386;2023-05-29T15:49:09;15.65;;;3.28;;
22525;SDS011;11429;50.842;4.386;2023-05-29T15:51:34;17.38;;;3.28;;
22525;SDS011;11429;50.842;4.386;2023-05-29T15:54:05;9.85;;;3.58;;
22525;SDS011;11429;50.842;4.386;2023-05-29T15:56:31;14.07;;;2.90;;
22525;SDS011;11429;50.842;4.386;2023-05-29T15:58:57;12.30;;;3.30;;
22525;SDS011;11429;50.842;4.386;2023-05-29T16:01:23;11.98;;;3.00;;
22525;SDS011;11429;50.842;4.386;2023-05-29T16:03:49;11.23;;;2.80;;
22525;SDS011;11429;50.842;4.386;2023-05-29T16:06:15;11.20;;;2.65;;
22525;SDS011;11429;50.842;4.386;2023-05-29T16:08:40;8.32;;;2.55;;
22525;SDS011;11429;50.842;4.386;2023-05-29T16:11:07;7.35;;;2.47;;
22525;SDS011;11429;50.842;4.386;2023-05-29T16:13:32;21.80;;;3.25;;